Accueil
METAR-TAF:

METAR-TAF

Aéroports :

Aéroport de Valence-Chabeuil

Valence, France

latitude: 44-54-58N, longitude: 4-58-06E, altitude: 160 m

Observation

Le bulletin a été fait il y a 23 minutes, à 07:00 UTC
Vent 8 kt de nord
Température 1°C
Humidité 93%
Pression 1016 hPa
Visibilité: 8000 m

METAR: LFLU 290700Z AUTO 36008KT 8000 NSC 01/00 Q1016

Heure: 08:23 (07:23 UTC)


TAF: absent

Observations et prévisions météorologiques de plus de 4000 aéroports (messages METAR et TAF).

Les stations disponibles sont représentées par des disques jaunes et rouges sur la carte.

Passer la souris dessus pour voir le nom de la station.

Cliquer dessus pour voir les observations et prévisions météorologiques.

Pour changer de carte: cliquez sur les boutons verts avec une croix noire pour zoomer, sur le bouton vert avec un tiret pour effectuer un zoom arrière, ou sur les flèches vertes pour les cartes adjacentes.


METAR-TAF: